Time;durP1;ratioP1;P1;durP2;ratioP2;P2;SDS_P1;SDS_P2;PMS_P1;PMS_P2;Temp;Humidity;BMP_temperature;BMP_pressure;BME280_temperature;BME280_humidity;BME280_pressure;Samples;Min_cycle;Max_cycle;Signal;HPM_P1;HPM_P2
2023/12/25 00:01:06;;;;;;;;;;;;;;;17.05;50.42;99380.13;5064062;28;19916;-80
2023/12/25 00:03:32;;;;;;;;;;;;;;;17.02;50.76;99388.09;5063742;28;19924;-81
2023/12/25 00:05:57;;;;;;;;;;;;;;;17.01;50.65;99381.88;5064781;28;19928;-81
2023/12/25 00:08:22;;;;;;;;;;;;;;;16.99;50.57;99386.84;5066947;28;19924;-82
2023/12/25 00:10:48;;;;;;;;;;;;;;;16.94;50.51;99381.59;5065341;28;20015;-81
2023/12/25 00:13:13;;;;;;;;;;;;;;;16.95;50.65;99388.59;5068726;28;20392;-81
2023/12/25 00:15:38;;;;;;;;;;;;;;;16.94;50.62;99386.22;5065301;28;20373;-81
2023/12/25 00:18:04;;;;;;;;;;;;;;;16.95;50.56;99396.72;5061768;28;20002;-81
2023/12/25 00:20:29;;;;;;;;;;;;;;;16.97;50.43;99399.91;5070177;28;19920;-81
2023/12/25 00:22:54;;;;;;;;;;;;;;;16.90;50.60;99407.72;5062942;28;20460;-81
2023/12/25 00:25:19;;;;;;;;;;;;;;;16.88;50.68;99405.34;5065361;28;19927;-81
2023/12/25 00:27:45;;;;;;;;;;;;;;;16.86;50.81;99406.75;5069875;28;20613;-82
2023/12/25 00:30:10;;;;;;;;;;;;;;;16.86;50.49;99407.56;5067897;28;19941;-81
2023/12/25 00:32:36;;;;;;;;;;;;;;;16.84;50.57;99403.59;5070654;28;19928;-82
2023/12/25 00:35:01;;;;;;;;;;;;;;;16.86;50.59;99401.34;5069915;28;19921;-81
2023/12/25 00:37:26;;;;;;;;;;;;;;;16.85;50.71;99402.47;5065451;28;20502;-82
2023/12/25 00:39:51;;;;;;;;;;;;;;;16.85;50.48;99411.38;5063083;28;19925;-82
2023/12/25 00:42:18;;;;;;;;;;;;;;;16.85;50.43;99403.25;5070372;28;19966;-81
2023/12/25 00:44:44;;;;;;;;;;;;;;;16.78;50.35;99408.38;5069930;28;19923;-81
2023/12/25 00:47:09;;;;;;;;;;;;;;;16.80;50.61;99408.84;5068189;28;19920;-81
2023/12/25 00:49:34;;;;;;;;;;;;;;;16.86;50.27;99417.56;5064609;28;19970;-82
2023/12/25 00:51:59;;;;;;;;;;;;;;;16.88;50.16;99412.66;5067668;28;19982;-81
2023/12/25 00:54:27;;;;;;;;;;;;;;;16.88;50.15;99412.66;5068810;28;19920;-81
2023/12/25 00:56:52;;;;;;;;;;;;;;;16.92;50.12;99413.59;5071122;28;19924;-81
2023/12/25 00:59:17;;;;;;;;;;;;;;;16.93;49.59;99417.91;5068916;28;19916;-82
2023/12/25 01:01:43;;;;;;;;;;;;;;;16.91;49.51;99409.31;5065685;28;19924;-81
2023/12/25 01:04:08;;;;;;;;;;;;;;;16.84;49.68;99415.19;5064122;28;21372;-80
2023/12/25 01:06:33;;;;;;;;;;;;;;;16.85;49.76;99413.28;5067424;28;19927;-81
2023/12/25 01:08:59;;;;;;;;;;;;;;;16.82;49.19;99405.81;5064620;28;20408;-81
2023/12/25 01:11:24;;;;;;;;;;;;;;;16.80;49.46;99427.78;5073812;28;19931;-81
2023/12/25 01:13:49;;;;;;;;;;;;;;;16.81;49.26;99436.69;5066281;28;19928;-82
2023/12/25 01:16:15;;;;;;;;;;;;;;;16.74;49.46;99442.59;5070974;28;19917;-82
2023/12/25 01:18:40;;;;;;;;;;;;;;;16.76;49.13;99439.56;5065509;28;19920;-82
2023/12/25 01:21:06;;;;;;;;;;;;;;;16.79;49.00;99439.72;5070223;28;19920;-81
2023/12/25 01:23:31;;;;;;;;;;;;;;;16.79;49.18;99450.53;5068506;28;20029;-82
2023/12/25 01:25:56;;;;;;;;;;;;;;;16.84;49.00;99463.88;5071659;28;19959;-82
2023/12/25 01:28:21;;;;;;;;;;;;;;;16.78;48.97;99450.88;5067744;28;20755;-82
2023/12/25 01:30:47;;;;;;;;;;;;;;;16.77;49.00;99449.28;5099986;27;20011;-82
2023/12/25 01:33:12;;;;;;;;;;;;;;;16.80;48.88;99457.53;5072942;28;20066;-82
2023/12/25 01:35:37;;;;;;;;;;;;;;;16.77;48.69;99457.38;5067222;28;19920;-82
2023/12/25 01:38:03;;;;;;;;;;;;;;;16.79;48.65;99460.56;5064896;28;20066;-82
2023/12/25 01:40:28;;;;;;;;;;;;;;;16.80;48.93;99471.06;5051711;28;19920;-82
2023/12/25 01:42:55;;;;;;;;;;;;;;;16.87;48.54;99475.97;5055057;28;20350;-82
2023/12/25 01:45:20;;;;;;;;;;;;;;;16.85;48.47;99470.88;5051496;28;19925;-82
2023/12/25 01:47:47;;;;;;;;;;;;;;;16.91;48.17;99485.84;5049403;28;19921;-82
2023/12/25 01:50:12;;;;;;;;;;;;;;;16.89;48.28;99490.00;5049170;28;19925;-82
2023/12/25 01:52:37;;;;;;;;;;;;;;;16.87;47.60;99484.88;5052320;28;20357;-83
2023/12/25 01:55:03;;;;;;;;;;;;;;;16.87;47.87;99490.28;5053215;28;19917;-82
2023/12/25 01:57:35;;;;;;;;;;;;;;;16.88;47.86;99499.25;5051810;28;19917;-82
2023/12/25 02:00:00;;;;;;;;;;;;;;;16.86;47.56;99493.31;5048845;28;19925;-82
2023/12/25 02:02:25;;;;;;;;;;;;;;;16.85;47.78;99486.31;5045851;28;19916;-82
2023/12/25 02:04:51;;;;;;;;;;;;;;;16.85;47.42;99491.75;5051712;28;19924;-82
2023/12/25 02:07:16;;;;;;;;;;;;;;;16.83;47.22;99500.19;5050348;28;19921;-82
2023/12/25 02:09:47;;;;;;;;;;;;;;;16.86;47.66;99499.53;5044002;28;19936;-82
2023/12/25 02:12:12;;;;;;;;;;;;;;;16.90;47.70;99488.88;5049513;28;19923;-82
2023/12/25 02:14:37;;;;;;;;;;;;;;;16.93;47.66;99499.06;5052349;28;19917;-82
2023/12/25 02:17:03;;;;;;;;;;;;;;;16.92;47.53;99500.19;5050573;28;19917;-82
2023/12/25 02:19:38;;;;;;;;;;;;;;;16.94;47.71;99494.44;5050187;28;20391;-83
2023/12/25 02:22:07;;;;;;;;;;;;;;;16.95;47.46;99523.88;5051058;28;19916;-82
2023/12/25 02:24:32;;;;;;;;;;;;;;;16.95;47.75;99525.78;5052223;28;20744;-83
2023/12/25 02:26:58;;;;;;;;;;;;;;;16.92;47.61;99525.31;5049752;28;19960;-82
2023/12/25 02:29:23;;;;;;;;;;;;;;;16.90;47.54;99529.47;5049602;28;20407;-82
2023/12/25 02:31:49;;;;;;;;;;;;;;;16.90;47.56;99521.34;5046153;28;19917;-83
2023/12/25 02:34:14;;;;;;;;;;;;;;;16.89;47.71;99517.06;5052898;28;19920;-83
2023/12/25 02:36:40;;;;;;;;;;;;;;;16.88;47.62;99518.97;5052611;28;20242;-83
2023/12/25 02:39:05;;;;;;;;;;;;;;;16.93;47.76;99509.88;5081038;28;20418;-82
2023/12/25 02:41:30;;;;;;;;;;;;;;;16.90;47.45;99521.34;5046642;28;19924;-83
2023/12/25 02:43:56;;;;;;;;;;;;;;;16.90;47.33;99515.94;5050915;28;20438;-83
2023/12/25 02:46:21;;;;;;;;;;;;;;;16.88;47.39;99510.06;5052439;28;19921;-82
2023/12/25 02:48:46;;;;;;;;;;;;;;;16.89;47.25;99514.34;5044804;28;19921;-81
2023/12/25 02:51:11;;;;;;;;;;;;;;;16.86;47.20;99514.97;5046437;28;19917;-83
2023/12/25 02:53:37;;;;;;;;;;;;;;;16.81;47.22;99520.53;5050026;28;19927;-83
2023/12/25 02:56:02;;;;;;;;;;;;;;;16.81;47.53;99515.13;5050296;28;19916;-83
2023/12/25 02:58:27;;;;;;;;;;;;;;;16.84;47.40;99518.00;5051185;28;19917;-84
2023/12/25 03:00:53;;;;;;;;;;;;;;;16.82;47.25;99520.22;5046277;28;19967;-83
2023/12/25 03:03:18;;;;;;;;;;;;;;;16.82;47.43;99517.53;5050106;28;19964;-84
2023/12/25 03:05:43;;;;;;;;;;;;;;;16.83;47.42;99519.09;5049757;28;20003;-83
2023/12/25 03:08:09;;;;;;;;;;;;;;;16.84;47.25;99525.31;5046621;28;20027;-83
2023/12/25 03:10:34;;;;;;;;;;;;;;;16.82;46.89;99524.84;5045887;28;19943;-83
2023/12/25 03:12:59;;;;;;;;;;;;;;;16.79;47.32;99517.38;5046671;28;19928;-83
2023/12/25 03:15:25;;;;;;;;;;;;;;;16.78;47.39;99526.59;5049914;28;20372;-83
2023/12/25 03:17:50;;;;;;;;;;;;;;;16.77;47.45;99527.72;5044110;28;20667;-83
2023/12/25 03:20:16;;;;;;;;;;;;;;;16.80;47.24;99543.31;5049925;28;19916;-83
2023/12/25 03:22:41;;;;;;;;;;;;;;;16.83;47.41;99545.38;5062151;28;19927;-83
2023/12/25 03:25:06;;;;;;;;;;;;;;;16.82;46.99;99554.59;5043487;28;20309;-83
2023/12/25 03:27:31;;;;;;;;;;;;;;;16.84;47.40;99549.66;5045426;28;20008;-82
2023/12/25 03:29:57;;;;;;;;;;;;;;;16.82;46.97;99555.38;5051205;28;19922;-82
2023/12/25 03:32:22;;;;;;;;;;;;;;;16.79;47.26;99539.00;5048136;28;19924;-83
2023/12/25 03:34:48;;;;;;;;;;;;;;;16.79;47.13;99541.72;5044977;28;19964;-83
2023/12/25 03:37:13;;;;;;;;;;;;;;;16.83;47.20;99542.66;5047553;28;19960;-84
2023/12/25 03:39:38;;;;;;;;;;;;;;;16.82;47.07;99531.03;5043602;28;19982;-83
2023/12/25 03:42:04;;;;;;;;;;;;;;;16.84;46.94;99544.25;5052332;28;19917;-82
2023/12/25 03:44:29;;;;;;;;;;;;;;;16.79;46.56;99533.59;5047353;28;20627;-82
2023/12/25 03:46:54;;;;;;;;;;;;;;;16.78;47.13;99546.31;5046125;28;20019;-83
2023/12/25 03:49:20;;;;;;;;;;;;;;;16.79;47.18;99530.91;5050189;28;19921;-83
2023/12/25 03:51:45;;;;;;;;;;;;;;;16.78;46.90;99538.22;5046374;28;20373;-83
2023/12/25 03:54:10;;;;;;;;;;;;;;;16.75;46.73;99524.53;5048528;28;19998;-83
2023/12/25 03:56:35;;;;;;;;;;;;;;;16.74;46.58;99523.75;5045795;28;19932;-83
2023/12/25 03:59:02;;;;;;;;;;;;;;;16.77;46.55;99516.91;5048417;28;19924;-83
2023/12/25 04:01:28;;;;;;;;;;;;;;;16.79;46.81;99506.53;5049213;28;19920;-83
2023/12/25 04:03:53;;;;;;;;;;;;;;;16.78;46.59;99505.75;5044179;28;19928;-83
2023/12/25 04:06:25;;;;;;;;;;;;;;;16.78;46.07;99513.88;5047801;28;19916;-83
2023/12/25 04:08:50;;;;;;;;;;;;;;;16.81;46.36;99509.72;5045244;28;19998;-83
2023/12/25 04:11:19;;;;;;;;;;;;;;;16.78;46.08;99508.47;5050310;28;19921;-83
2023/12/25 04:13:44;;;;;;;;;;;;;;;16.80;45.92;99519.75;5045141;28;19921;-84
2023/12/25 04:16:18;;;;;;;;;;;;;;;16.76;45.88;99518.81;5047964;28;20062;-84
2023/12/25 04:18:43;;;;;;;;;;;;;;;16.81;46.50;99509.72;5042766;28;19917;-84
2023/12/25 04:21:19;;;;;;;;;;;;;;;16.80;46.34;99516.25;5050622;28;19985;-83
2023/12/25 04:23:44;;;;;;;;;;;;;;;16.80;46.29;99516.25;5048670;28;19916;-83
2023/12/25 04:26:09;;;;;;;;;;;;;;;16.84;46.35;99520.69;5044905;28;19916;-84
2023/12/25 04:28:35;;;;;;;;;;;;;;;16.83;46.28;99526.44;5047596;28;19925;-83
2023/12/25 04:31:00;;;;;;;;;;;;;;;16.85;46.27;99529.59;5064296;28;21223;-84
2023/12/25 04:33:25;;;;;;;;;;;;;;;16.89;46.44;99520.56;5046749;28;19925;-83
2023/12/25 04:35:50;;;;;;;;;;;;;;;16.93;46.45;99526.13;5045691;28;19924;-83
2023/12/25 04:38:16;;;;;;;;;;;;;;;16.98;46.23;99507.00;5051310;28;19917;-84
2023/12/25 04:40:41;;;;;;;;;;;;;;;16.94;45.88;99527.72;5050259;28;19921;-83
2023/12/25 04:43:06;;;;;;;;;;;;;;;16.94;45.89;99525.00;5050289;28;20300;-83
2023/12/25 04:45:32;;;;;;;;;;;;;;;16.90;45.86;99521.34;5048900;28;19945;-84
2023/12/25 04:47:57;;;;;;;;;;;;;;;16.91;45.83;99522.94;5052407;28;19973;-83
2023/12/25 04:50:22;;;;;;;;;;;;;;;16.95;45.66;99521.19;5053818;28;20546;-83
2023/12/25 04:52:47;;;;;;;;;;;;;;;16.96;45.89;99528.19;5049781;28;20036;-84
2023/12/25 04:55:13;;;;;;;;;;;;;;;16.96;45.64;99521.97;5050422;28;19923;-83
2023/12/25 04:57:38;;;;;;;;;;;;;;;16.88;45.21;99529.78;5052108;28;20297;-84
2023/12/25 05:00:04;;;;;;;;;;;;;;;16.95;45.48;99540.13;5050059;28;19916;-84
2023/12/25 05:02:29;;;;;;;;;;;;;;;16.91;45.62;99545.38;5046358;28;19920;-84
2023/12/25 05:04:54;;;;;;;;;;;;;;;16.91;45.46;99539.19;5050843;28;20401;-84
2023/12/25 05:07:20;;;;;;;;;;;;;;;16.93;45.25;99558.59;5051850;28;19968;-84
2023/12/25 05:09:46;;;;;;;;;;;;;;;16.92;44.77;99551.59;5045342;28;20346;-84
2023/12/25 05:12:11;;;;;;;;;;;;;;;16.94;44.89;99546.66;5049159;28;19925;-84
2023/12/25 05:14:36;;;;;;;;;;;;;;;16.89;44.39;99558.44;5047820;28;19921;-84
2023/12/25 05:17:02;;;;;;;;;;;;;;;16.89;44.80;99560.34;5051222;28;20015;-84
2023/12/25 05:19:27;;;;;;;;;;;;;;;16.93;45.06;99550.47;5050820;28;19921;-84
2023/12/25 05:21:52;;;;;;;;;;;;;;;16.88;44.44;99551.44;5052378;28;19924;-84
2023/12/25 05:24:18;;;;;;;;;;;;;;;16.84;44.75;99547.75;5055761;28;19916;-83
2023/12/25 05:26:43;;;;;;;;;;;;;;;16.87;44.96;99549.00;5050257;28;20381;-83
2023/12/25 05:29:08;;;;;;;;;;;;;;;16.93;44.73;99550.47;5054370;28;19971;-84
2023/12/25 05:31:34;;;;;;;;;;;;;;;16.94;44.95;99556.69;5045828;28;19927;-84
2023/12/25 05:33:59;;;;;;;;;;;;;;;16.92;44.56;99544.25;5076529;28;19942;-84
2023/12/25 05:36:24;;;;;;;;;;;;;;;16.90;44.46;99551.91;5045810;28;19923;-84
2023/12/25 05:38:49;;;;;;;;;;;;;;;16.90;44.45;99540.28;5044544;28;20380;-84
2023/12/25 05:41:15;;;;;;;;;;;;;;;16.86;44.53;99548.22;5048182;28;19936;-84
2023/12/25 05:43:42;;;;;;;;;;;;;;;16.87;44.76;99552.53;5048245;28;20007;-84
2023/12/25 05:46:07;;;;;;;;;;;;;;;16.90;44.63;99545.69;5051904;28;19917;-84
2023/12/25 05:48:32;;;;;;;;;;;;;;;16.85;44.90;99562.06;5044923;28;19932;-84
2023/12/25 05:50:57;;;;;;;;;;;;;;;16.86;44.73;99553.63;5051653;28;20495;-84
2023/12/25 05:53:24;;;;;;;;;;;;;;;16.89;44.94;99557.63;5050921;28;19927;-84
2023/12/25 05:55:50;;;;;;;;;;;;;;;16.88;44.99;99562.25;5045715;28;20304;-84
2023/12/25 05:58:15;;;;;;;;;;;;;;;16.92;44.98;99573.22;5056767;28;19916;-84
2023/12/25 06:00:40;;;;;;;;;;;;;;;16.94;44.86;99571.00;5081542;28;19959;-84
2023/12/25 06:03:05;;;;;;;;;;;;;;;16.93;45.12;99561.28;5052759;28;19917;-84
2023/12/25 06:05:31;;;;;;;;;;;;;;;16.93;44.75;99569.41;5046792;28;19932;-84
2023/12/25 06:07:56;;;;;;;;;;;;;;;16.91;44.68;99564.31;5047621;28;20401;-84
2023/12/25 06:10:22;;;;;;;;;;;;;;;16.85;44.75;99568.28;5043509;28;19923;-84
2023/12/25 06:12:47;;;;;;;;;;;;;;;16.84;44.94;99566.69;5043540;28;19928;-84
2023/12/25 06:15:13;;;;;;;;;;;;;;;16.87;45.16;99573.38;5048433;28;19916;-84
2023/12/25 06:17:38;;;;;;;;;;;;;;;16.91;44.65;99572.44;5049046;28;20262;-84
2023/12/25 06:20:04;;;;;;;;;;;;;;;16.90;44.55;99562.72;5045654;28;19982;-83
2023/12/25 06:22:30;;;;;;;;;;;;;;;16.89;44.48;99571.16;5047008;28;19924;-83
2023/12/25 06:24:55;;;;;;;;;;;;;;;16.87;44.90;99563.34;5048973;28;19920;-84
2023/12/25 06:27:21;;;;;;;;;;;;;;;16.89;44.53;99563.06;5050769;28;19929;-84
2023/12/25 06:29:46;;;;;;;;;;;;;;;16.87;44.48;99566.03;5050484;28;19921;-84
2023/12/25 06:32:12;;;;;;;;;;;;;;;16.83;44.40;99592.16;5053226;28;20502;-84
2023/12/25 06:34:37;;;;;;;;;;;;;;;16.86;44.48;99579.88;5049555;28;20807;-84
2023/12/25 06:37:03;;;;;;;;;;;;;;;16.85;44.31;99583.72;5049342;28;19963;-84
2023/12/25 06:39:28;;;;;;;;;;;;;;;16.81;44.74;99577.34;5048059;28;20332;-84
2023/12/25 06:41:54;;;;;;;;;;;;;;;16.86;44.69;99585.31;5045123;28;20532;-84
2023/12/25 06:44:19;;;;;;;;;;;;;;;16.87;44.91;99584.19;5050714;28;20483;-84
2023/12/25 06:46:44;;;;;;;;;;;;;;;16.95;44.51;99594.22;5048168;28;20363;-84
2023/12/25 06:49:09;;;;;;;;;;;;;;;16.91;44.78;99604.09;5050770;28;20419;-84
2023/12/25 06:51:35;;;;;;;;;;;;;;;16.92;44.44;99586.75;5049860;28;19921;-85
2023/12/25 06:54:00;;;;;;;;;;;;;;;16.89;44.05;99592.81;5040722;28;19925;-84
2023/12/25 06:56:25;;;;;;;;;;;;;;;16.79;43.75;99585.78;5062399;28;19920;-84
2023/12/25 06:58:51;;;;;;;;;;;;;;;16.78;43.29;99588.81;5052271;28;19924;-83
2023/12/25 07:01:20;;;;;;;;;;;;;;;16.79;42.94;99571.47;5049343;28;19925;-84
2023/12/25 07:03:46;;;;;;;;;;;;;;;16.78;43.02;99589.59;5043597;28;19916;-84
2023/12/25 07:06:11;;;;;;;;;;;;;;;16.79;43.07;99590.41;5045870;28;19927;-85
2023/12/25 07:08:36;;;;;;;;;;;;;;;16.73;42.90;99592.47;5048585;28;19968;-85
2023/12/25 07:11:02;;;;;;;;;;;;;;;16.73;42.95;99594.38;5049647;28;21597;-85
2023/12/25 07:13:27;;;;;;;;;;;;;;;16.72;42.71;99590.09;5045625;28;20339;-84
2023/12/25 07:15:52;;;;;;;;;;;;;;;16.74;42.24;99598.69;5043463;28;19948;-83
2023/12/25 07:18:17;;;;;;;;;;;;;;;16.73;42.52;99597.09;5043807;28;19927;-85
2023/12/25 07:20:43;;;;;;;;;;;;;;;16.73;42.46;99610.63;5045755;28;19916;-84
2023/12/25 07:23:08;;;;;;;;;;;;;;;16.73;42.42;99613.31;5046918;28;20063;-84
2023/12/25 07:25:34;;;;;;;;;;;;;;;16.70;42.71;99612.03;5047693;28;19928;-86
2023/12/25 07:27:59;;;;;;;;;;;;;;;16.71;42.56;99610.13;5049579;28;19974;-85
2023/12/25 07:30:24;;;;;;;;;;;;;;;16.71;42.82;99618.25;5043177;28;19917;-84
2023/12/25 07:32:49;;;;;;;;;;;;;;;16.70;42.80;99636.38;5042754;28;19917;-85
2023/12/25 07:35:15;;;;;;;;;;;;;;;16.73;42.79;99645.78;5048474;28;19978;-84
2023/12/25 07:37:40;;;;;;;;;;;;;;;16.74;42.51;99652.78;5051221;28;19925;-84
2023/12/25 07:40:06;;;;;;;;;;;;;;;16.68;42.51;99654.81;5048889;28;19920;-84
2023/12/25 07:42:31;;;;;;;;;;;;;;;16.68;42.62;99659.41;5047371;28;19925;-84
2023/12/25 07:44:56;;;;;;;;;;;;;;;16.66;42.36;99648.09;5045832;28;20412;-83
2023/12/25 07:47:21;;;;;;;;;;;;;;;16.59;42.05;99662.88;5048082;28;20018;-84
2023/12/25 07:49:47;;;;;;;;;;;;;;;16.59;42.23;99645.88;5048467;28;20485;-85
2023/12/25 07:52:12;;;;;;;;;;;;;;;16.57;41.96;99654.28;5047915;28;19935;-83
2023/12/25 07:54:37;;;;;;;;;;;;;;;16.53;40.71;99680.38;5064947;28;20019;-83
2023/12/25 07:57:03;;;;;;;;;;;;;;;16.50;41.23;99683.69;5050714;28;19924;-84
2023/12/25 07:59:28;;;;;;;;;;;;;;;16.48;41.17;99685.91;5039639;28;19924;-84
2023/12/25 08:01:53;;;;;;;;;;;;;;;16.48;40.50;99672.38;5043908;28;19928;-85
2023/12/25 08:04:18;;;;;;;;;;;;;;;16.45;40.44;99707.38;5046722;28;19917;-84
2023/12/25 08:06:44;;;;;;;;;;;;;;;16.43;40.55;99707.69;5047342;28;19947;-84
2023/12/25 08:09:12;;;;;;;;;;;;;;;16.38;40.72;99707.81;5041366;28;20019;-83
2023/12/25 08:11:37;;;;;;;;;;;;;;;16.41;40.90;99731.53;5050620;28;19928;-82
2023/12/25 08:14:03;;;;;;;;;;;;;;;16.41;40.56;99733.44;5041977;28;19920;-82
2023/12/25 08:16:28;;;;;;;;;;;;;;;16.43;40.79;99742.03;5041275;28;20392;-82
2023/12/25 08:18:53;;;;;;;;;;;;;;;16.41;40.62;99758.56;5044260;28;19921;-84
2023/12/25 08:21:20;;;;;;;;;;;;;;;16.44;40.42;99762.53;5046425;28;19924;-83
2023/12/25 08:23:45;;;;;;;;;;;;;;;16.43;40.36;99772.56;5044465;28;19912;-82
2023/12/25 08:26:10;;;;;;;;;;;;;;;16.41;40.25;99768.56;5045975;28;20372;-83
2023/12/25 08:28:40;;;;;;;;;;;;;;;16.35;40.30;99776.03;5051026;28;20413;-83
2023/12/25 08:31:05;;;;;;;;;;;;;;;16.30;40.11;99776.13;5049216;28;20444;-83
2023/12/25 08:33:31;;;;;;;;;;;;;;;16.30;40.17;99778.84;5048042;28;19974;-85
2023/12/25 08:35:56;;;;;;;;;;;;;;;16.28;40.15;99781.84;5043831;28;19925;-82
2023/12/25 08:38:21;;;;;;;;;;;;;;;16.31;40.40;99804.75;5041840;28;20424;-83
2023/12/25 08:40:46;;;;;;;;;;;;;;;16.28;40.29;99808.88;5040491;28;19917;-83
2023/12/25 08:43:12;;;;;;;;;;;;;;;16.31;40.44;99820.97;5047697;28;20015;-84
2023/12/25 08:45:37;;;;;;;;;;;;;;;16.37;39.38;99827.09;5045899;28;19921;-82
2023/12/25 08:48:02;;;;;;;;;;;;;;;16.33;39.80;99829.56;5039279;28;20495;-84
2023/12/25 08:50:27;;;;;;;;;;;;;;;16.25;39.74;99825.72;5054483;28;19917;-84
2023/12/25 08:52:53;;;;;;;;;;;;;;;16.31;39.34;99831.78;5050420;28;19927;-83
2023/12/25 08:55:18;;;;;;;;;;;;;;;16.35;39.69;99835.50;5042438;28;19962;-83
2023/12/25 08:57:43;;;;;;;;;;;;;;;16.38;39.82;99828.69;5038890;28;20042;-84
2023/12/25 09:00:10;;;;;;;;;;;;;;;16.42;39.69;99835.06;5041237;28;19959;-83
2023/12/25 09:02:36;;;;;;;;;;;;;;;16.41;39.11;99842.38;5043029;28;20406;-83
2023/12/25 09:05:01;;;;;;;;;;;;;;;16.48;39.67;99860.84;5040244;28;19925;-83
2023/12/25 09:07:27;;;;;;;;;;;;;;;16.53;39.40;99850.72;5057818;28;19952;-84
2023/12/25 09:09:52;;;;;;;;;;;;;;;16.55;39.37;99853.91;5038437;28;20008;-83
2023/12/25 09:12:17;;;;;;;;;;;;;;;16.57;39.69;99849.00;5040438;28;20407;-83
2023/12/25 09:14:44;;;;;;;;;;;;;;;16.61;39.51;99870.81;5057423;28;20387;-83
2023/12/25 09:17:09;;;;;;;;;;;;;;;16.62;39.32;99865.06;5040639;28;20406;-84
2023/12/25 09:19:34;;;;;;;;;;;;;;;16.61;39.22;99871.59;5038047;28;19921;-83
2023/12/25 09:22:00;;;;;;;;;;;;;;;16.62;38.91;99869.69;5039537;28;19917;-84
2023/12/25 09:24:25;;;;;;;;;;;;;;;16.60;39.36;99874.63;5037162;28;19951;-84
2023/12/25 09:26:52;;;;;;;;;;;;;;;16.61;39.05;99876.22;5043222;28;19925;-84
2023/12/25 09:29:18;;;;;;;;;;;;;;;16.57;38.93;99878.75;5042920;28;19916;-83
2023/12/25 09:31:43;;;;;;;;;;;;;;;16.58;38.83;99891.16;5045636;28;20031;-83
2023/12/25 09:34:09;;;;;;;;;;;;;;;16.54;38.89;99886.69;5041732;28;19996;-83
2023/12/25 09:36:34;;;;;;;;;;;;;;;16.51;38.89;99884.56;5040763;28;19986;-84
2023/12/25 09:38:59;;;;;;;;;;;;;;;16.60;39.19;99880.81;5040201;28;20012;-84
2023/12/25 09:41:25;;;;;;;;;;;;;;;16.70;39.40;99884.41;5042947;28;20003;-84
2023/12/25 09:43:52;;;;;;;;;;;;;;;16.83;38.99;99891.63;5062707;28;20388;-84
2023/12/25 09:46:18;;;;;;;;;;;;;;;16.94;39.09;99905.72;5045500;28;19920;-84
2023/12/25 09:48:44;;;;;;;;;;;;;;;16.99;38.63;99909.06;5040300;28;20494;-84
2023/12/25 09:51:11;;;;;;;;;;;;;;;17.05;38.61;99907.03;5041114;28;19921;-83
2023/12/25 09:53:36;;;;;;;;;;;;;;;17.00;38.58;99899.84;5044389;28;19986;-85
2023/12/25 09:56:03;;;;;;;;;;;;;;;16.98;38.14;99907.47;5040452;28;20554;-85
2023/12/25 09:58:29;;;;;;;;;;;;;;;17.01;38.34;99892.53;5043223;28;20011;-85
2023/12/25 10:00:55;;;;;;;;;;;;;;;17.06;38.46;99905.94;5046154;28;19932;-83
2023/12/25 10:03:20;;;;;;;;;;;;;;;17.06;38.23;99898.63;5041898;28;19921;-84
2023/12/25 10:05:46;;;;;;;;;;;;;;;17.11;38.47;99906.59;5046436;28;19967;-85
2023/12/25 10:08:11;;;;;;;;;;;;;;;17.18;38.20;99904.22;5045005;28;20412;-84
2023/12/25 10:10:36;;;;;;;;;;;;;;;17.12;38.05;99902.78;5046667;28;20311;-83
2023/12/25 10:13:02;;;;;;;;;;;;;;;17.16;37.97;99897.53;5043856;28;19960;-85
2023/12/25 10:15:27;;;;;;;;;;;;;;;17.12;38.28;99907.38;5043957;28;20350;-84
2023/12/25 10:18:10;;;;;;;;;;;;;;;17.13;37.60;99912.50;5050277;28;20605;-85
2023/12/25 10:20:35;;;;;;;;;;;;;;;17.15;37.75;99907.56;5038345;28;19943;-86
2023/12/25 10:23:09;;;;;;;;;;;;;;;17.11;37.57;99913.91;5047400;28;19924;-84
2023/12/25 10:25:42;;;;;;;;;;;;;;;17.11;38.03;99911.19;5048064;28;20385;-85
2023/12/25 10:28:11;;;;;;;;;;;;;;;17.05;37.11;99917.84;5044090;28;19921;-84
2023/12/25 10:30:36;;;;;;;;;;;;;;;17.05;37.72;99943.00;5039609;28;20003;-84
2023/12/25 10:33:09;;;;;;;;;;;;;;;17.09;36.87;99932.38;5046064;28;20051;-84
2023/12/25 10:35:34;;;;;;;;;;;;;;;17.21;36.98;99943.41;5049002;28;19916;-85
2023/12/25 10:38:03;;;;;;;;;;;;;;;17.27;36.87;99935.97;5049186;28;20327;-84
2023/12/25 10:40:31;;;;;;;;;;;;;;;17.41;36.77;99944.75;5041143;28;19924;-85
2023/12/25 10:42:56;;;;;;;;;;;;;;;17.60;37.14;99936.41;5047019;28;19921;-84
2023/12/25 10:45:23;;;;;;;;;;;;;;;17.71;35.10;99945.84;5036079;28;19917;-85
2023/12/25 10:47:50;;;;;;;;;;;;;;;17.72;35.97;99959.06;5049717;28;19920;-84
2023/12/25 10:50:17;;;;;;;;;;;;;;;17.67;35.43;99951.06;5052724;28;19955;-84
2023/12/25 10:52:43;;;;;;;;;;;;;;;17.76;35.65;99960.03;5041311;28;19944;-85
2023/12/25 10:55:09;;;;;;;;;;;;;;;17.79;34.62;99958.63;5041445;28;19935;-85
2023/12/25 10:57:35;;;;;;;;;;;;;;;17.82;35.33;99963.44;5047637;28;19916;-84
2023/12/25 11:00:04;;;;;;;;;;;;;;;17.79;34.79;99964.84;5038472;28;20288;-84
2023/12/25 11:02:33;;;;;;;;;;;;;;;17.73;35.27;99971.50;5038996;28;19951;-84
2023/12/25 11:04:58;;;;;;;;;;;;;;;17.67;34.76;99971.94;5039355;28;19991;-84
2023/12/25 11:07:23;;;;;;;;;;;;;;;17.50;34.28;99975.38;5049501;28;19920;-85
2023/12/25 11:09:49;;;;;;;;;;;;;;;17.42;35.01;99970.75;5045513;28;19924;-84
2023/12/25 11:12:15;;;;;;;;;;;;;;;17.33;35.53;99972.59;5039795;28;19958;-84
2023/12/25 11:14:40;;;;;;;;;;;;;;;17.33;35.69;99988.84;5039519;28;20361;-83
2023/12/25 11:17:07;;;;;;;;;;;;;;;17.34;34.97;99985.03;5043450;28;19967;-84
2023/12/25 11:19:32;;;;;;;;;;;;;;;17.34;35.84;99993.16;5071016;28;20389;-85
2023/12/25 11:21:57;;;;;;;;;;;;;;;17.38;35.62;99991.41;5044265;28;19938;-84
2023/12/25 11:24:27;;;;;;;;;;;;;;;17.49;35.86;100000.88;5070008;28;19927;-84
2023/12/25 11:27:01;;;;;;;;;;;;;;;17.64;35.74;99995.06;5046482;28;19934;-84
2023/12/25 11:29:29;;;;;;;;;;;;;;;17.71;35.46;100000.84;5042223;28;20390;-84
2023/12/25 11:31:54;;;;;;;;;;;;;;;17.76;35.56;100006.09;5041979;28;19987;-87
2023/12/25 11:34:21;;;;;;;;;;;;;;;17.90;35.64;100011.41;5042925;28;20292;-84
2023/12/25 11:36:47;;;;;;;;;;;;;;;17.97;35.60;99992.00;5050498;28;19917;-84
2023/12/25 11:39:13;;;;;;;;;;;;;;;17.98;35.08;100009.84;5038833;28;21803;-85
2023/12/25 11:41:38;;;;;;;;;;;;;;;18.01;35.10;100006.50;5038349;28;20020;-85
2023/12/25 11:44:08;;;;;;;;;;;;;;;18.09;35.35;100009.22;5048845;28;19975;-86
2023/12/25 11:46:36;;;;;;;;;;;;;;;18.19;35.49;100032.53;5040996;28;19939;-85
2023/12/25 11:49:02;;;;;;;;;;;;;;;18.20;34.52;100012.44;5041500;28;19924;-85
2023/12/25 11:51:29;;;;;;;;;;;;;;;18.08;34.61;100026.59;5042990;28;19979;-84
2023/12/25 11:53:58;;;;;;;;;;;;;;;17.98;33.11;100026.13;5035378;28;19921;-84
2023/12/25 11:56:24;;;;;;;;;;;;;;;17.86;33.12;100029.41;5040316;28;19924;-84
2023/12/25 11:58:51;;;;;;;;;;;;;;;17.74;32.14;100038.13;5049763;28;20280;-84
2023/12/25 12:01:17;;;;;;;;;;;;;;;17.60;32.88;100031.22;5042255;28;19924;-85
2023/12/25 12:03:46;;;;;;;;;;;;;;;17.57;32.76;100048.84;5042377;28;19925;-83
2023/12/25 12:06:13;;;;;;;;;;;;;;;17.37;33.02;100033.94;5045807;28;19925;-84
2023/12/25 12:08:38;;;;;;;;;;;;;;;17.31;32.39;100046.03;5046483;28;19943;-84
2023/12/25 12:11:05;;;;;;;;;;;;;;;17.26;33.29;100061.59;5041028;28;20456;-83
2023/12/25 12:13:30;;;;;;;;;;;;;;;17.23;32.83;100065.69;5041577;28;19921;-85
2023/12/25 12:15:56;;;;;;;;;;;;;;;17.20;33.50;100064.41;5047967;28;20029;-85
2023/12/25 12:18:21;;;;;;;;;;;;;;;17.25;32.94;100049.97;5041451;28;19928;-85
2023/12/25 12:20:47;;;;;;;;;;;;;;;17.25;33.45;100057.31;5043343;28;19917;-84
2023/12/25 12:23:14;;;;;;;;;;;;;;;17.24;33.35;100074.66;5034649;28;19917;-84
2023/12/25 12:25:40;;;;;;;;;;;;;;;17.21;33.64;100076.03;5038248;28;19921;-85
2023/12/25 12:28:05;;;;;;;;;;;;;;;17.16;33.19;100070.75;5045969;28;19925;-85
2023/12/25 12:30:31;;;;;;;;;;;;;;;17.07;33.70;100078.03;5042239;28;20400;-84
2023/12/25 12:32:57;;;;;;;;;;;;;;;17.04;34.05;100084.84;5040166;28;20062;-84
2023/12/25 12:35:22;;;;;;;;;;;;;;;16.98;34.02;100080.66;5045992;28;20416;-85
2023/12/25 12:37:48;;;;;;;;;;;;;;;16.96;34.25;100098.31;5039528;28;19921;-84